createdAt,value
2023-04-29T00:00:49.916Z,100472.56
2023-04-29T00:03:20.157Z,100473.03
2023-04-29T00:05:49.874Z,100479.50
2023-04-29T00:08:19.296Z,100477.84
2023-04-29T00:10:51.232Z,100476.28
2023-04-29T00:13:21.436Z,100479.88
2023-04-29T00:15:50.958Z,100475.47
2023-04-29T00:18:20.416Z,100477.00
2023-04-29T00:20:49.745Z,100484.09
2023-04-29T00:23:19.047Z,100472.31
2023-04-29T00:25:53.490Z,100481.19
2023-04-29T00:28:23.048Z,100479.44
2023-04-29T00:30:53.161Z,100502.94
2023-04-29T00:33:22.839Z,100496.16
2023-04-29T00:35:52.310Z,100492.19
2023-04-29T00:38:22.489Z,100499.47
2023-04-29T00:40:54.914Z,100494.28
2023-04-29T00:43:24.452Z,100494.50
2023-04-29T00:45:54.440Z,100504.78
2023-04-29T00:48:23.864Z,100512.13
2023-04-29T00:50:53.520Z,100508.06
2023-04-29T00:53:23.665Z,100510.38
2023-04-29T00:55:56.045Z,100519.75
2023-04-29T00:58:33.663Z,100513.75
2023-04-29T01:01:03.941Z,100525.06
2023-04-29T01:03:34.411Z,100522.88
2023-04-29T01:06:11.975Z,100522.78
2023-04-29T01:08:57.134Z,100520.88
2023-04-29T01:11:38.286Z,100530.38
2023-04-29T01:14:08.581Z,100532.91
2023-04-29T01:16:43.358Z,100528.94
2023-04-29T01:19:43.167Z,100534.56
2023-04-29T01:22:12.958Z,100536.91
2023-04-29T01:24:45.310Z,100538.88
2023-04-29T01:27:26.470Z,100537.53
2023-04-29T01:30:03.312Z,100530.31
2023-04-29T01:32:50.210Z,100527.50
2023-04-29T01:35:33.488Z,100526.91
2023-04-29T01:38:12.137Z,100535.53
2023-04-29T01:40:54.926Z,100545.41
2023-04-29T01:43:27.605Z,100547.38
2023-04-29T01:45:59.493Z,100553.66
2023-04-29T01:48:29.841Z,100559.50
2023-04-29T01:50:59.467Z,100567.44
2023-04-29T01:53:29.145Z,100565.00
2023-04-29T01:56:01.549Z,100572.84
2023-04-29T01:58:31.232Z,100575.00
2023-04-29T02:01:00.926Z,100574.03
2023-04-29T02:03:31.084Z,100573.88
2023-04-29T02:06:00.902Z,100582.63
2023-04-29T02:08:30.732Z,100591.41
2023-04-29T02:11:03.104Z,100593.84
2023-04-29T02:13:32.811Z,100599.91
2023-04-29T02:16:10.664Z,100609.44
2023-04-29T02:18:40.898Z,100603.91
2023-04-29T02:21:10.937Z,100609.88
2023-04-29T02:23:40.885Z,100611.16
2023-04-29T02:26:14.268Z,100619.00
2023-04-29T02:28:44.586Z,100615.81
2023-04-29T02:31:14.413Z,100608.31
2023-04-29T02:33:44.483Z,100610.50
2023-04-29T02:36:14.193Z,100622.63
2023-04-29T02:38:43.849Z,100623.13
2023-04-29T02:41:19.691Z,100622.72
2023-04-29T02:43:49.634Z,100634.38
2023-04-29T02:46:19.482Z,100629.78
2023-04-29T02:48:49.276Z,100636.59
2023-04-29T02:51:18.979Z,100633.78
2023-04-29T02:53:50.335Z,100635.94
2023-04-29T02:56:23.563Z,100635.28
2023-04-29T02:58:53.288Z,100634.09
2023-04-29T03:01:24.510Z,100641.50
2023-04-29T03:03:55.027Z,100641.63
2023-04-29T03:06:24.983Z,100647.00
2023-04-29T03:08:55.512Z,100650.63
2023-04-29T03:11:27.832Z,100661.09
2023-04-29T03:13:57.610Z,100657.75
2023-04-29T03:16:28.949Z,100668.50
2023-04-29T03:18:58.701Z,100669.91
2023-04-29T03:21:30.045Z,100670.19
2023-04-29T03:23:59.772Z,100679.56
2023-04-29T03:26:32.055Z,100685.38
2023-04-29T03:29:01.877Z,100687.06
2023-04-29T03:31:31.661Z,100687.19
2023-04-29T03:34:04.306Z,100684.06
2023-04-29T03:36:34.015Z,100690.72
2023-04-29T03:39:04.843Z,100692.38
2023-04-29T03:41:37.223Z,100693.91
2023-04-29T03:44:07.675Z,100696.81
2023-04-29T03:46:37.551Z,100702.09
2023-04-29T03:49:07.669Z,100697.16
2023-04-29T03:51:37.416Z,100704.06
2023-04-29T03:54:07.744Z,100702.03
2023-04-29T03:56:40.050Z,100704.59
2023-04-29T03:59:09.895Z,100706.25
2023-04-29T04:01:39.981Z,100707.69
2023-04-29T04:04:09.930Z,100712.25
2023-04-29T04:06:39.860Z,100715.72
2023-04-29T04:09:09.554Z,100718.13
2023-04-29T04:11:42.308Z,100720.81
2023-04-29T04:14:12.026Z,100730.50
2023-04-29T04:16:41.764Z,100739.09
2023-04-29T04:19:11.589Z,100750.63
2023-04-29T04:21:41.226Z,100756.28
2023-04-29T04:24:11.232Z,100753.13
2023-04-29T04:26:44.344Z,100766.50
2023-04-29T04:29:14.370Z,100758.41
2023-04-29T04:31:46.748Z,100766.44
2023-04-29T04:34:16.810Z,100772.38
2023-04-29T04:36:47.004Z,100773.88
2023-04-29T04:39:16.682Z,100776.25
2023-04-29T04:41:48.952Z,100778.03
2023-04-29T04:44:18.685Z,100779.84
2023-04-29T04:46:48.472Z,100787.59
2023-04-29T04:49:18.312Z,100783.19
2023-04-29T04:51:48.044Z,100780.28
2023-04-29T04:54:17.810Z,100789.56
2023-04-29T04:56:52.375Z,100799.34
2023-04-29T04:59:22.152Z,100796.88
2023-04-29T05:01:51.843Z,100809.03
2023-04-29T05:04:21.643Z,100810.66
2023-04-29T05:06:51.567Z,100808.28
2023-04-29T05:09:21.198Z,100814.81
2023-04-29T05:11:54.233Z,100809.28
2023-04-29T05:14:23.913Z,100815.56
2023-04-29T05:16:53.684Z,100822.50
2023-04-29T05:19:23.339Z,100815.22
2023-04-29T05:21:53.235Z,100845.50
2023-04-29T05:24:24.106Z,100843.88
2023-04-29T05:26:56.446Z,100845.50
2023-04-29T05:29:27.392Z,100844.19
2023-04-29T05:31:57.062Z,100849.72
2023-04-29T05:34:26.819Z,100856.81
2023-04-29T05:36:57.984Z,100854.97
2023-04-29T05:39:27.677Z,100851.78
2023-04-29T05:42:00.174Z,100861.78
2023-04-29T05:44:31.935Z,100871.97
2023-04-29T05:47:03.782Z,100870.19
2023-04-29T05:49:33.505Z,100877.63
2023-04-29T05:52:07.253Z,100865.97
2023-04-29T05:54:37.458Z,100890.03
2023-04-29T05:57:09.779Z,100887.22
2023-04-29T05:59:39.436Z,100890.66
2023-04-29T06:02:11.111Z,100894.97
2023-04-29T06:04:41.849Z,100897.38
2023-04-29T06:07:12.841Z,100901.41
2023-04-29T06:09:43.222Z,100904.91
2023-04-29T06:12:15.573Z,100905.91
2023-04-29T06:14:45.171Z,100916.72
2023-04-29T06:17:15.261Z,100915.41
2023-04-29T06:19:44.913Z,100924.31
2023-04-29T06:22:14.610Z,100916.22
2023-04-29T06:24:44.291Z,100916.75
2023-04-29T06:27:16.584Z,100931.06
2023-04-29T06:29:46.422Z,100923.09
2023-04-29T06:32:16.484Z,100925.44
2023-04-29T06:34:46.508Z,100936.28
2023-04-29T06:37:16.531Z,100920.06
2023-04-29T06:39:46.221Z,100937.03
2023-04-29T06:42:18.599Z,100936.81
2023-04-29T06:44:48.411Z,100940.28
2023-04-29T06:47:18.291Z,100941.59
2023-04-29T06:49:48.045Z,100942.56
2023-04-29T06:52:17.921Z,100936.38
2023-04-29T06:54:47.809Z,100947.47
2023-04-29T06:57:21.001Z,100952.03
2023-04-29T06:59:51.083Z,100949.13
2023-04-29T07:02:21.742Z,100957.31
2023-04-29T07:04:52.924Z,100956.59
2023-04-29T07:07:23.671Z,100967.84
2023-04-29T07:09:54.841Z,100961.84
2023-04-29T07:12:27.799Z,100966.41
2023-04-29T07:14:58.134Z,100974.16
2023-04-29T07:17:27.891Z,100978.25
2023-04-29T07:19:57.683Z,100981.06
2023-04-29T07:22:27.606Z,100972.28
2023-04-29T07:24:57.855Z,100983.28
2023-04-29T07:27:30.722Z,100984.13
2023-04-29T07:30:05.084Z,100979.63
2023-04-29T07:32:35.631Z,100996.66
2023-04-29T07:35:05.503Z,100996.97
2023-04-29T07:37:35.284Z,101008.53
2023-04-29T07:40:05.103Z,100995.09
2023-04-29T07:42:37.561Z,101002.13
2023-04-29T07:45:08.641Z,100999.34
2023-04-29T07:47:38.712Z,100998.41
2023-04-29T07:50:09.652Z,101013.72
2023-04-29T07:52:39.401Z,101019.16
2023-04-29T07:55:10.095Z,101014.66
2023-04-29T07:57:42.381Z,101019.56
2023-04-29T08:00:13.364Z,101013.66
2023-04-29T08:02:43.175Z,101015.47
2023-04-29T08:05:13.397Z,101026.56
2023-04-29T08:07:43.326Z,101027.28
2023-04-29T08:10:13.366Z,101036.34
2023-04-29T08:12:48.592Z,101039.19
2023-04-29T08:15:18.849Z,101037.28
2023-04-29T08:17:48.672Z,101044.78
2023-04-29T08:20:18.416Z,101045.56
2023-04-29T08:22:48.199Z,101049.50
2023-04-29T08:25:17.983Z,101056.59
2023-04-29T08:27:50.392Z,101058.91
2023-04-29T08:30:20.361Z,101054.59
2023-04-29T08:32:50.249Z,101061.75
2023-04-29T08:35:19.988Z,101069.09
2023-04-29T08:37:49.656Z,101071.47
2023-04-29T08:40:19.611Z,101068.78
2023-04-29T08:42:53.157Z,101079.34
2023-04-29T08:45:23.455Z,101067.41
2023-04-29T08:47:54.454Z,101073.44
2023-04-29T08:50:24.168Z,101083.81
2023-04-29T08:52:54.189Z,101080.44
2023-04-29T08:55:24.699Z,101082.47
2023-04-29T08:57:58.277Z,101097.25
2023-04-29T09:00:28.256Z,101095.44
2023-04-29T09:03:05.018Z,101086.94
2023-04-29T09:05:37.346Z,101091.72
2023-04-29T09:08:08.808Z,101091.72
2023-04-29T09:10:40.410Z,101104.06
2023-04-29T09:13:25.381Z,101090.38
2023-04-29T09:15:55.602Z,101094.88
2023-04-29T09:18:46.852Z,101102.00
2023-04-29T09:21:22.402Z,101101.19
2023-04-29T09:23:54.004Z,101104.09
2023-04-29T09:26:24.904Z,101112.53
2023-04-29T09:29:14.375Z,101108.88
2023-04-29T09:31:44.824Z,101111.50
2023-04-29T09:34:15.348Z,101119.50
2023-04-29T09:36:48.037Z,101117.00
2023-04-29T09:39:19.110Z,101117.97
2023-04-29T09:42:03.778Z,101117.38
2023-04-29T09:44:38.660Z,101113.66
2023-04-29T09:47:09.576Z,101121.56
2023-04-29T09:49:41.985Z,101128.78
2023-04-29T09:52:13.841Z,101128.09
2023-04-29T09:54:45.345Z,101133.19
2023-04-29T09:57:16.111Z,101138.00
2023-04-29T09:59:48.372Z,101143.19
2023-04-29T10:02:20.847Z,101132.16
2023-04-29T10:04:57.790Z,101131.66
2023-04-29T10:07:31.069Z,101139.47
2023-04-29T10:10:01.045Z,101145.66
2023-04-29T10:12:30.743Z,101135.75
2023-04-29T10:15:07.042Z,101136.84
2023-04-29T10:17:46.654Z,101143.66
2023-04-29T10:20:18.484Z,101136.81
2023-04-29T10:22:49.762Z,101145.22
2023-04-29T10:25:22.371Z,101142.97
2023-04-29T10:27:53.755Z,101140.66
2023-04-29T10:30:26.302Z,101138.97
2023-04-29T10:32:57.294Z,101149.59
2023-04-29T10:35:27.204Z,101140.38
2023-04-29T10:37:58.947Z,101145.88
2023-04-29T10:40:34.375Z,101145.81
2023-04-29T10:43:04.826Z,101132.09
2023-04-29T10:45:37.872Z,101147.56
2023-04-29T10:48:22.070Z,101141.88
2023-04-29T10:51:06.719Z,101143.06
2023-04-29T10:53:36.901Z,101144.75
2023-04-29T10:56:09.460Z,101142.75
2023-04-29T10:58:45.052Z,101145.59
2023-04-29T11:01:19.666Z,101139.88
2023-04-29T11:03:55.316Z,101155.06
2023-04-29T11:06:27.872Z,101157.81
2023-04-29T11:09:05.841Z,101151.84
2023-04-29T11:11:47.257Z,101159.13
2023-04-29T11:14:18.238Z,101163.22
2023-04-29T11:16:55.562Z,101170.56
2023-04-29T11:19:27.319Z,101164.34
2023-04-29T11:22:17.947Z,101167.50
2023-04-29T11:24:56.049Z,101158.88
2023-04-29T11:27:28.405Z,101177.34
2023-04-29T11:29:59.460Z,101170.31
2023-04-29T11:32:34.041Z,101170.66
2023-04-29T11:35:14.625Z,101173.56
2023-04-29T11:37:46.350Z,101173.84
2023-04-29T11:40:17.595Z,101165.44
2023-04-29T11:42:49.606Z,101176.56
2023-04-29T11:45:21.315Z,101172.41
2023-04-29T11:47:55.963Z,101174.91
2023-04-29T11:50:26.338Z,101176.06
2023-04-29T11:52:56.183Z,101172.16
2023-04-29T11:55:25.946Z,101181.34
2023-04-29T11:57:55.595Z,101180.63
2023-04-29T12:00:25.334Z,101174.06
2023-04-29T12:02:57.756Z,101193.03
2023-04-29T12:05:29.190Z,101180.59
2023-04-29T12:07:58.965Z,101191.41
2023-04-29T12:10:28.733Z,101192.81
2023-04-29T12:12:59.509Z,101181.41
2023-04-29T12:15:29.780Z,101196.50
2023-04-29T12:18:03.826Z,101202.28
2023-04-29T12:20:33.942Z,101186.78
2023-04-29T12:23:15.184Z,101191.41
2023-04-29T12:25:45.017Z,101206.91
2023-04-29T12:28:19.673Z,101194.41
2023-04-29T12:30:49.967Z,101197.13
2023-04-29T12:33:24.003Z,101196.84
2023-04-29T12:35:54.182Z,101197.13
2023-04-29T12:38:24.677Z,101205.22
2023-04-29T12:40:54.313Z,101210.97
2023-04-29T12:43:29.356Z,101209.06
2023-04-29T12:46:05.307Z,101203.59
2023-04-29T12:48:41.520Z,101208.75
2023-04-29T12:51:12.774Z,101210.13
2023-04-29T12:53:42.420Z,101209.94
2023-04-29T12:56:14.693Z,101203.94
2023-04-29T12:58:44.446Z,101208.84
2023-04-29T13:01:16.589Z,101201.78
2023-04-29T13:03:51.706Z,101207.75
2023-04-29T13:06:21.708Z,101212.63
2023-04-29T13:08:51.645Z,101208.81
2023-04-29T13:11:21.314Z,101211.19
2023-04-29T13:13:51.799Z,101207.16
2023-04-29T13:16:21.599Z,101215.31
2023-04-29T13:19:12.354Z,101203.09
2023-04-29T13:21:43.613Z,101204.19
2023-04-29T13:24:13.369Z,101204.69
2023-04-29T13:26:43.042Z,101213.59
2023-04-29T13:29:12.809Z,101209.22
2023-04-29T13:31:44.157Z,101204.06
2023-04-29T13:34:16.668Z,101213.06
2023-04-29T13:36:46.422Z,101206.53
2023-04-29T13:39:16.430Z,101215.72
2023-04-29T13:41:46.690Z,101213.03
2023-04-29T13:44:24.896Z,101216.59
2023-04-29T13:47:01.649Z,101210.63
2023-04-29T13:55:38.935Z,101219.81
2023-04-29T14:00:54.552Z,101211.97
2023-04-29T14:03:10.110Z,101214.13
2023-04-29T14:05:42.544Z,101214.63
2023-04-29T14:08:12.479Z,101220.06
2023-04-29T14:10:43.574Z,101230.38
2023-04-29T14:13:13.201Z,101223.06
2023-04-29T14:15:42.934Z,101222.78
2023-04-29T14:18:12.640Z,101228.22
2023-04-29T14:20:44.957Z,101224.66
2023-04-29T14:23:14.667Z,101239.28
2023-04-29T14:25:44.350Z,101246.03
2023-04-29T14:28:14.225Z,101244.19
2023-04-29T14:30:46.120Z,101243.91
2023-04-29T14:33:16.799Z,101240.09
2023-04-29T14:35:49.257Z,101249.84
2023-04-29T14:38:18.913Z,101244.38
2023-04-29T14:40:49.063Z,101258.78
2023-04-29T14:43:19.135Z,101258.50
2023-04-29T14:45:48.956Z,101260.69
2023-04-29T14:48:18.611Z,101262.31
2023-04-29T14:50:50.893Z,101263.59
2023-04-29T14:53:21.628Z,101268.72
2023-04-29T14:55:52.592Z,101278.47
2023-04-29T14:58:22.372Z,101280.06
2023-04-29T15:00:52.232Z,101272.47
2023-04-29T15:03:23.066Z,101273.03
2023-04-29T15:05:55.757Z,101281.47
2023-04-29T15:08:25.450Z,101281.22
2023-04-29T15:10:55.636Z,101292.31
2023-04-29T15:13:25.251Z,101290.41
2023-04-29T15:15:55.102Z,101286.84
2023-04-29T15:18:26.536Z,101287.75
2023-04-29T15:20:59.435Z,101297.53
2023-04-29T15:23:29.261Z,101293.00
2023-04-29T15:25:59.593Z,101294.72
2023-04-29T15:28:29.249Z,101295.84
2023-04-29T15:31:00.014Z,101293.63
2023-04-29T15:33:29.679Z,101295.56
2023-04-29T15:36:03.745Z,101304.50
2023-04-29T15:38:33.383Z,101307.44
2023-04-29T15:41:04.659Z,101302.56
2023-04-29T15:43:34.881Z,101314.00
2023-04-29T15:46:04.722Z,101310.78
2023-04-29T15:48:35.524Z,101309.78
2023-04-29T15:51:10.366Z,101314.38
2023-04-29T15:53:40.126Z,101313.38
2023-04-29T15:56:09.971Z,101326.00
2023-04-29T15:58:39.772Z,101326.47
2023-04-29T16:01:09.445Z,101324.91
2023-04-29T16:03:42.046Z,101326.47
2023-04-29T16:06:14.655Z,101337.28
2023-04-29T16:08:44.457Z,101329.91
2023-04-29T16:11:14.076Z,101318.84
2023-04-29T16:13:43.861Z,101333.81
2023-04-29T16:16:13.621Z,101333.91
2023-04-29T16:18:43.385Z,101339.78
2023-04-29T16:21:15.648Z,101342.00
2023-04-29T16:23:45.716Z,101345.38
2023-04-29T16:26:15.404Z,101359.47
2023-04-29T16:28:45.409Z,101358.13
2023-04-29T16:31:15.838Z,101356.66
2023-04-29T16:33:45.888Z,101362.34
2023-04-29T16:36:18.210Z,101363.31
2023-04-29T16:38:47.924Z,101365.72
2023-04-29T16:41:17.764Z,101367.44
2023-04-29T16:43:47.411Z,101362.47
2023-04-29T16:46:17.183Z,101378.06
2023-04-29T16:48:46.920Z,101369.19
2023-04-29T16:51:19.892Z,101377.97
2023-04-29T16:53:49.530Z,101371.06
2023-04-29T16:56:19.189Z,101377.22
2023-04-29T16:58:48.814Z,101384.34
2023-04-29T17:01:19.909Z,101380.81
2023-04-29T17:03:50.087Z,101388.69
2023-04-29T17:06:22.406Z,101399.03
2023-04-29T17:08:53.532Z,101396.59
2023-04-29T17:11:23.192Z,101394.16
2023-04-29T17:13:54.020Z,101395.91
2023-04-29T17:16:23.755Z,101407.31
2023-04-29T17:18:53.715Z,101411.25
2023-04-29T17:21:26.169Z,101408.09
2023-04-29T17:23:56.013Z,101409.34
2023-04-29T17:26:25.769Z,101408.69
2023-04-29T17:28:55.484Z,101413.91
2023-04-29T17:31:31.021Z,101409.84
2023-04-29T17:34:05.616Z,101417.69
2023-04-29T17:36:37.884Z,101412.34
2023-04-29T17:39:10.726Z,101427.09
2023-04-29T17:41:40.388Z,101425.81
2023-04-29T17:44:10.908Z,101424.06
2023-04-29T17:46:43.752Z,101430.69
2023-04-29T17:49:13.399Z,101425.66
2023-04-29T17:51:45.960Z,101427.66
2023-04-29T17:54:15.710Z,101437.00
2023-04-29T17:56:45.714Z,101433.44
2023-04-29T17:59:15.442Z,101443.56
2023-04-29T18:01:45.356Z,101442.59
2023-04-29T18:04:15.469Z,101443.72
2023-04-29T18:06:47.727Z,101443.22
2023-04-29T18:09:18.791Z,101447.50
2023-04-29T18:11:49.006Z,101457.66
2023-04-29T18:14:18.675Z,101448.97
2023-04-29T18:16:48.717Z,101459.56
2023-04-29T18:19:18.522Z,101455.38
2023-04-29T18:21:51.200Z,101457.25
2023-04-29T18:24:20.861Z,101464.53
2023-04-29T18:26:50.771Z,101464.72
2023-04-29T18:29:20.412Z,101464.94
2023-04-29T18:31:50.122Z,101473.03
2023-04-29T18:34:19.862Z,101477.78
2023-04-29T18:36:52.541Z,101474.28
2023-04-29T18:39:22.255Z,101478.88
2023-04-29T18:41:52.034Z,101477.69
2023-04-29T18:44:21.757Z,101480.66
2023-04-29T18:46:51.435Z,101490.88
2023-04-29T18:49:21.367Z,101490.63
2023-04-29T18:51:53.608Z,101498.56
2023-04-29T18:54:23.305Z,101504.50
2023-04-29T18:56:53.128Z,101509.53
2023-04-29T18:59:22.794Z,101503.31
2023-04-29T19:01:52.698Z,101509.78
2023-04-29T19:04:22.710Z,101526.75
2023-04-29T19:06:55.017Z,101512.91
2023-04-29T19:09:24.807Z,101520.75
2023-04-29T19:11:54.464Z,101525.91
2023-04-29T19:14:24.108Z,101534.63
2023-04-29T19:16:54.973Z,101537.63
2023-04-29T19:19:24.857Z,101539.66
2023-04-29T19:21:57.103Z,101544.78
2023-04-29T19:24:28.795Z,101542.41
2023-04-29T19:26:58.825Z,101550.69
2023-04-29T19:29:28.546Z,101548.56
2023-04-29T19:31:58.310Z,101556.97
2023-04-29T19:34:28.107Z,101550.38
2023-04-29T19:37:01.300Z,101561.19
2023-04-29T19:39:31.078Z,101558.41
2023-04-29T19:42:00.904Z,101562.38
2023-04-29T19:44:31.023Z,101558.28
2023-04-29T19:47:00.936Z,101558.03
2023-04-29T19:49:31.132Z,101564.34
2023-04-29T19:52:03.814Z,101564.84
2023-04-29T19:54:34.864Z,101558.38
2023-04-29T19:57:05.875Z,101570.47
2023-04-29T19:59:35.678Z,101567.66
2023-04-29T20:02:05.559Z,101570.25
2023-04-29T20:04:35.262Z,101571.44
2023-04-29T20:07:07.537Z,101577.72
2023-04-29T20:09:37.452Z,101573.63
2023-04-29T20:12:07.312Z,101583.63
2023-04-29T20:14:36.978Z,101590.53
2023-04-29T20:17:06.669Z,101588.16
2023-04-29T20:19:36.482Z,101591.22
2023-04-29T20:22:08.740Z,101590.88
2023-04-29T20:24:38.468Z,101605.78
2023-04-29T20:27:08.124Z,101602.72
2023-04-29T20:29:38.060Z,101595.91
2023-04-29T20:32:08.213Z,101613.34
2023-04-29T20:34:37.998Z,101609.59
2023-04-29T20:37:10.252Z,101608.66
2023-04-29T20:39:39.936Z,101614.38
2023-04-29T20:42:09.574Z,101609.41
2023-04-29T20:44:39.829Z,101616.81
2023-04-29T20:47:10.648Z,101622.75
2023-04-29T20:49:40.388Z,101623.13
2023-04-29T20:52:12.685Z,101626.78
2023-04-29T20:54:42.317Z,101621.09
2023-04-29T20:57:12.027Z,101633.88
2023-04-29T20:59:41.809Z,101629.16
2023-04-29T21:02:11.467Z,101636.13
2023-04-29T21:04:43.937Z,101638.09
2023-04-29T21:07:16.218Z,101638.88
2023-04-29T21:09:46.196Z,101644.66
2023-04-29T21:12:16.139Z,101646.09
2023-04-29T21:14:45.757Z,101651.47
2023-04-29T21:17:16.522Z,101648.47
2023-04-29T21:19:46.193Z,101657.25
2023-04-29T21:22:18.519Z,101655.97
2023-04-29T21:24:48.163Z,101661.09
2023-04-29T21:27:17.940Z,101667.16
2023-04-29T21:29:47.581Z,101665.06
2023-04-29T21:32:21.831Z,101658.63
2023-04-29T21:34:51.735Z,101661.09
2023-04-29T21:37:24.754Z,101668.03
2023-04-29T21:39:57.580Z,101661.78
2023-04-29T21:42:28.291Z,101670.38
2023-04-29T21:45:00.279Z,101670.34
2023-04-29T21:47:33.496Z,101661.63
2023-04-29T21:50:03.578Z,101664.69
2023-04-29T21:52:36.209Z,101675.00
2023-04-29T21:55:06.661Z,101673.88
2023-04-29T21:57:44.148Z,101678.47
2023-04-29T22:00:33.954Z,101681.47
2023-04-29T22:03:04.459Z,101676.19
2023-04-29T22:05:34.691Z,101680.47
2023-04-29T22:08:07.906Z,101675.00
2023-04-29T22:10:40.243Z,101685.50
2023-04-29T22:13:10.669Z,101682.50
2023-04-29T22:15:40.606Z,101687.13
2023-04-29T22:18:10.338Z,101684.34
2023-04-29T22:20:39.971Z,101691.03
2023-04-29T22:23:12.584Z,101688.25
2023-04-29T22:25:42.242Z,101688.13
2023-04-29T22:28:11.943Z,101695.13
2023-04-29T22:30:43.088Z,101693.06
2023-04-29T22:33:13.292Z,101695.69
2023-04-29T22:35:42.974Z,101701.00
2023-04-29T22:38:15.496Z,101701.53
2023-04-29T22:40:46.364Z,101701.94
2023-04-29T22:43:17.042Z,101705.97
2023-04-29T22:45:53.387Z,101704.81
2023-04-29T22:48:25.119Z,101698.63
2023-04-29T22:50:57.325Z,101701.03
2023-04-29T22:53:29.813Z,101707.16
2023-04-29T22:56:03.305Z,101700.56
2023-04-29T22:58:33.855Z,101700.13
2023-04-29T23:01:05.326Z,101707.47
2023-04-29T23:03:34.994Z,101708.97
2023-04-29T23:06:04.917Z,101712.16
2023-04-29T23:08:37.202Z,101710.03
2023-04-29T23:11:07.021Z,101721.88
2023-04-29T23:13:36.673Z,101716.66
2023-04-29T23:16:07.970Z,101714.19
2023-04-29T23:18:39.187Z,101717.75
2023-04-29T23:21:08.987Z,101716.69
2023-04-29T23:23:41.312Z,101724.16
2023-04-29T23:26:11.105Z,101724.66
2023-04-29T23:28:40.854Z,101724.72
2023-04-29T23:31:10.596Z,101720.44
2023-04-29T23:33:40.290Z,101725.03
2023-04-29T23:36:10.129Z,101724.19
2023-04-29T23:38:42.474Z,101723.25
2023-04-29T23:41:12.274Z,101734.47
2023-04-29T23:43:41.981Z,101736.69
2023-04-29T23:46:11.873Z,101731.50
2023-04-29T23:48:41.513Z,101740.44
2023-04-29T23:51:11.197Z,101729.16
2023-04-29T23:53:43.426Z,101733.13
2023-04-29T23:56:13.190Z,101729.16
2023-04-29T23:58:42.971Z,101730.50
